Ana Sayfa
METAR-TAF:

METAR-TAF

Havaalanları :

Air Force Base Overberg

Bredasdorp, Güney Afrika

Enlem: 34-33-17S, Boylam: 20-15-02E, yükseklik: 16 m

Güncel hava durumu gözlemi

Rapor saat 08:00 UTC de 23 dakika önce yapıldı.
Sakin rüzgar
Sıcaklık 16°C
Nem 51%
Basınç 1016 hPa

METAR: FAOB 150800Z AUTO 00000KT //// // ////// 16/06 Q1016

Saat: 10:23 (08:23 UTC)


TAF: eksik

4.000'den fazla havaalanı için hava durumu gözlemleri ve tahminleri (METAR ve TAF raporları).

Kullanılabilir istasyonlar harita üzerinde sarı ve kırmızı noktalarla gösterilir.

İstasyonun adını görmek için fareyi noktanın üzerinde gezdirin.

Sonrasında hava gözlem ve tahminlerini görmek için tıklayın.

Haritayı değiştirmek için: yaklaştırmak için siyah artı işaretli yeşil düğmeye ve uzaklaştırmak için de eksi işaretli düğmeye hızla tıklayın; bitişik haritalar için yeşil okları kullanın.


METAR-TAF: